Time;durP1;ratioP1;P1;durP2;ratioP2;P2;SDS_P1;SDS_P2;PMS_P1;PMS_P2;Temp;Humidity;BMP_temperature;BMP_pressure;BME280_temperature;BME280_humidity;BME280_pressure;Samples;Min_cycle;Max_cycle;Signal;HPM_P1;HPM_P2
2023/09/16 00:01:04;;;;;;;9.85;5.13;;;;;;;;;;5072371;28;20040;-55
2023/09/16 00:03:32;;;;;;;9.05;6.00;;;;;;;;;;5072236;28;20021;-55
2023/09/16 00:05:58;;;;;;;7.53;5.30;;;;;;;;;;5072355;28;20032;-56
2023/09/16 00:08:24;;;;;;;10.00;6.00;;;;;;;;;;5071665;28;20024;-57
2023/09/16 00:10:50;;;;;;;11.73;6.28;;;;;;;;;;5071648;28;20112;-56
2023/09/16 00:13:17;;;;;;;9.95;6.28;;;;;;;;;;5019952;28;20032;-55
2023/09/16 00:15:48;;;;;;;10.13;6.63;;;;;;;;;;5071789;28;20075;-57
2023/09/16 00:18:15;;;;;;;9.18;5.88;;;;;;;;;;5071816;28;20086;-56
2023/09/16 00:20:41;;;;;;;9.98;6.90;;;;;;;;;;5071474;28;20025;-55
2023/09/16 00:23:07;;;;;;;11.00;5.78;;;;;;;;;;5073018;28;20049;-57
2023/09/16 00:25:34;;;;;;;14.32;6.10;;;;;;;;;;5074037;28;20024;-56
2023/09/16 00:28:00;;;;;;;8.50;5.57;;;;;;;;;;5038532;28;20116;-55
2023/09/16 00:30:26;;;;;;;9.35;5.15;;;;;;;;;;5071835;28;20017;-57
2023/09/16 00:32:52;;;;;;;7.35;5.80;;;;;;;;;;5071307;28;20013;-57
2023/09/16 00:35:19;;;;;;;7.78;6.53;;;;;;;;;;5071512;28;20077;-57
2023/09/16 00:37:46;;;;;;;11.48;7.05;;;;;;;;;;5071836;28;20028;-56
2023/09/16 00:40:13;;;;;;;12.02;6.88;;;;;;;;;;5071818;28;20089;-56
2023/09/16 00:42:40;;;;;;;8.95;7.30;;;;;;;;;;5071407;28;20119;-56
2023/09/16 00:45:10;;;;;;;14.00;7.07;;;;;;;;;;5071847;28;20038;-55
2023/09/16 00:47:42;;;;;;;12.35;7.97;;;;;;;;;;5069210;28;20471;-56
2023/09/16 00:50:09;;;;;;;7.25;6.43;;;21.40;99.90;;;;;;5053488;28;20384;-56
2023/09/16 00:52:40;;;;;;;8.95;6.90;;;21.60;99.90;;;;;;5054156;28;20479;-56
2023/09/16 00:55:06;;;;;;;8.05;6.72;;;21.60;99.90;;;;;;5071559;28;20029;-57
2023/09/16 00:57:32;;;;;;;7.38;6.45;;;21.70;99.90;;;;;;5070878;28;20490;-57
2023/09/16 00:59:58;;;;;;;6.63;5.93;;;21.60;99.90;;;;;;5073174;28;20025;-57
2023/09/16 01:02:26;;;;;;;11.15;6.60;;;21.60;99.90;;;;;;5071205;28;20028;-56
2023/09/16 01:04:53;;;;;;;8.50;5.82;;;21.60;99.90;;;;;;5073162;28;20027;-57
2023/09/16 01:07:21;;;;;;;7.43;6.18;;;21.70;99.90;;;;;;5073334;28;20097;-57
2023/09/16 01:09:47;;;;;;;8.50;5.47;;;21.50;99.90;;;;;;5071250;28;20037;-55
2023/09/16 01:12:13;;;;;;;11.32;6.82;;;;;;;;;;5071473;28;20029;-55
2023/09/16 01:14:39;;;;;;;9.23;6.20;;;;;;;;;;5071202;28;20100;-57
2023/09/16 01:17:18;;;;;;;9.25;6.32;;;;;;;;;;5071340;28;20420;-56
2023/09/16 01:19:47;;;;;;;7.47;6.32;;;;;;;;;;5082905;28;20496;-55
2023/09/16 01:22:14;;;;;;;8.73;6.18;;;;;;;;;;5075015;28;20391;-56
2023/09/16 01:24:41;;;;;;;7.28;6.40;;;;;;;;;;5080634;28;20032;-57
2023/09/16 01:27:07;;;;;;;8.98;6.72;;;;;;;;;;5073267;28;20024;-56
2023/09/16 01:29:34;;;;;;;9.13;6.85;;;21.10;99.90;;;;;;5077367;28;20028;-56
2023/09/16 01:32:04;;;;;;;7.72;6.40;;;21.00;99.90;;;;;;5079362;28;20020;-55
2023/09/16 01:34:52;;;;;;;8.75;6.32;;;21.10;99.90;;;;;;5038320;28;20059;-57
2023/09/16 01:37:21;;;;;;;10.50;7.22;;;21.10;99.90;;;;;;5081158;28;20024;-56
2023/09/16 01:39:52;;;;;;;9.25;7.05;;;21.20;99.90;;;;;;5081694;28;20063;-55
2023/09/16 01:42:18;;;;;;;7.80;6.70;;;21.20;99.90;;;;;;5076513;28;20107;-57
2023/09/16 01:44:44;;;;;;;10.77;6.82;;;21.10;99.90;;;;;;5052382;28;20453;-55
2023/09/16 01:47:10;;;;;;;13.43;7.30;;;;;;;;;;5077260;28;20067;-56
2023/09/16 01:49:36;;;;;;;10.48;7.03;;;;;;;;;;5076906;28;20041;-57
2023/09/16 01:52:02;;;;;;;8.48;6.95;;;;;;;;;;5077032;28;20100;-57
2023/09/16 01:54:28;;;;;;;11.18;7.35;;;20.60;99.90;;;;;;5080963;28;20479;-55
2023/09/16 01:56:54;;;;;;;10.00;7.00;;;20.80;99.90;;;;;;5081279;28;20020;-55
2023/09/16 01:59:20;;;;;;;11.65;7.25;;;20.80;99.90;;;;;;5023310;28;20082;-57
2023/09/16 02:01:46;;;;;;;10.07;7.30;;;20.90;99.90;;;;;;5076344;28;20036;-55
2023/09/16 02:04:12;;;;;;;13.68;7.35;;;20.80;99.90;;;;;;5086770;28;20119;-58
2023/09/16 02:06:38;;;;;;;10.77;7.40;;;20.70;99.90;;;;;;5037469;28;20055;-57
2023/09/16 02:09:05;;;;;;;9.73;6.93;;;;;;;;;;5081979;28;20062;-55
2023/09/16 02:11:31;;;;;;;8.25;6.65;;;;;;;;;;5082508;28;20095;-57
2023/09/16 02:13:58;;;;;;;8.00;7.20;;;;;;;;;;5083871;28;20016;-58
2023/09/16 02:16:25;;;;;;;10.38;6.75;;;;;;;;;;5055694;28;20032;-55
2023/09/16 02:18:51;;;;;;;10.40;7.68;;;;;;;;;;5083373;28;20413;-56
2023/09/16 02:21:17;;;;;;;8.32;6.57;;;;;;;;;;5085333;28;20593;-57
2023/09/16 02:23:43;;;;;;;9.25;7.05;;;;;;;;;;5094107;28;20352;-56
2023/09/16 02:26:09;;;;;;;8.27;6.75;;;;;;;;;;5093744;28;20048;-56
2023/09/16 02:28:35;;;;;;;10.70;7.70;;;;;;;;;;5093654;28;20024;-55
2023/09/16 02:31:01;;;;;;;11.68;8.18;;;;;;;;;;5093969;28;20027;-55
2023/09/16 02:33:27;;;;;;;9.52;7.72;;;;;;;;;;5093923;28;20020;-56
2023/09/16 02:35:53;;;;;;;12.63;7.82;;;;;;;;;;5094093;28;20090;-57
2023/09/16 02:38:19;;;;;;;12.82;7.95;;;;;;;;;;5093561;28;20024;-56
2023/09/16 02:40:45;;;;;;;10.70;7.65;;;;;;;;;;5093116;28;20099;-55
2023/09/16 02:43:11;;;;;;;11.52;8.52;;;;;;;;;;5093836;28;20030;-57
2023/09/16 02:45:44;;;;;;;21.17;9.85;;;19.80;99.90;;;;;;5056730;28;20044;-57
2023/09/16 02:48:10;;;;;;;12.90;9.15;;;19.70;99.90;;;;;;5093915;28;20384;-56
2023/09/16 02:50:39;;;;;;;16.95;9.57;;;19.70;99.90;;;;;;5093355;28;20048;-57
2023/09/16 02:53:05;;;;;;;16.02;9.75;;;19.60;99.90;;;;;;5041184;28;20149;-55
2023/09/16 02:55:32;;;;;;;17.52;11.15;;;19.70;99.90;;;;;;5040864;28;20361;-57
2023/09/16 02:58:01;;;;;;;15.63;10.77;;;19.70;99.90;;;;;;5093575;28;20475;-57
2023/09/16 03:00:27;;;;;;;15.60;11.07;;;19.70;99.90;;;;;;5093656;28;20086;-56
2023/09/16 03:02:52;;;;;;;17.27;10.75;;;19.70;99.90;;;;;;5093317;28;20459;-57
2023/09/16 03:05:18;;;;;;;14.38;10.75;;;19.60;99.90;;;;;;5093039;28;20036;-56
2023/09/16 03:07:44;;;;;;;17.50;11.73;;;19.50;99.90;;;;;;5092948;28;20023;-55
2023/09/16 03:10:11;;;;;;;17.85;10.65;;;19.60;99.90;;;;;;5093466;28;20052;-58
2023/09/16 03:12:37;;;;;;;17.52;11.23;;;19.50;99.90;;;;;;5091184;28;20106;-57
2023/09/16 03:15:03;;;;;;;17.33;10.57;;;19.50;99.90;;;;;;5092970;28;20531;-54
2023/09/16 03:17:29;;;;;;;15.48;11.00;;;19.60;99.90;;;;;;5074184;28;20102;-55
2023/09/16 03:19:55;;;;;;;17.35;10.40;;;19.60;99.90;;;;;;5074252;28;20387;-57
2023/09/16 03:22:22;;;;;;;18.48;11.52;;;;;;;;;;5044776;28;20048;-56
2023/09/16 03:24:48;;;;;;;16.08;11.48;;;19.50;99.90;;;;;;5072755;28;20116;-56
2023/09/16 03:27:14;;;;;;;17.70;12.68;;;19.40;99.90;;;;;;5072861;28;20021;-55
2023/09/16 03:29:40;;;;;;;16.40;12.55;;;19.30;99.90;;;;;;4972660;28;20039;-57
2023/09/16 03:32:06;;;;;;;13.23;11.40;;;19.40;99.90;;;;;;5072759;28;20464;-56
2023/09/16 03:34:32;;;;;;;18.60;12.32;;;19.60;99.90;;;;;;5054062;28;20040;-55
2023/09/16 03:36:58;;;;;;;20.40;12.70;;;19.70;99.90;;;;;;5072082;28;20055;-57
2023/09/16 03:39:24;;;;;;;19.88;12.75;;;19.90;99.90;;;;;;5072340;28;20027;-55
2023/09/16 03:41:50;;;;;;;21.67;12.40;;;20.00;99.90;;;;;;5020673;28;20036;-56
2023/09/16 03:44:15;;;;;;;13.80;11.77;;;19.90;99.90;;;;;;5072851;28;20108;-57
2023/09/16 03:46:41;;;;;;;18.80;12.30;;;20.20;99.90;;;;;;5073003;28;20101;-54
2023/09/16 03:49:08;;;;;;;17.23;13.38;;;20.00;99.90;;;;;;5013107;28;20041;-56
2023/09/16 03:51:35;;;;;;;21.00;13.65;;;20.00;99.90;;;;;;5014810;28;20033;-56
2023/09/16 03:54:01;;;;;;;19.85;12.40;;;20.00;99.90;;;;;;5018434;28;20120;-55
2023/09/16 03:56:26;;;;;;;18.75;12.27;;;20.10;99.90;;;;;;4953736;28;20043;-55
2023/09/16 03:58:52;;;;;;;15.32;13.25;;;20.20;99.90;;;;;;5014412;28;20101;-56
2023/09/16 04:01:18;;;;;;;18.55;14.02;;;20.10;99.90;;;;;;4962069;28;20057;-56
2023/09/16 04:03:44;;;;;;;18.55;13.32;;;20.10;99.90;;;;;;5017297;28;20064;-56
2023/09/16 04:06:09;;;;;;;17.25;11.93;;;19.70;99.90;;;;;;4985481;28;20052;-56
2023/09/16 04:08:37;;;;;;;20.63;13.27;;;19.90;99.90;;;;;;4986564;28;20038;-56
2023/09/16 04:11:03;;;;;;;17.02;13.32;;;;;;;;;;4985620;28;20121;-55
2023/09/16 04:13:29;;;;;;;15.20;13.55;;;19.50;99.90;;;;;;5014421;28;20397;-56
2023/09/16 04:15:55;;;;;;;18.10;14.52;;;19.70;99.90;;;;;;5017799;28;20044;-56
2023/09/16 04:18:21;;;;;;;17.60;14.15;;;19.50;99.90;;;;;;5013879;28;20052;-55
2023/09/16 04:20:48;;;;;;;19.85;14.15;;;19.40;99.90;;;;;;5032828;28;20036;-56
2023/09/16 04:23:14;;;;;;;20.52;14.25;;;19.40;99.90;;;;;;5067045;28;20049;-57
2023/09/16 04:25:40;;;;;;;14.85;12.75;;;19.40;99.90;;;;;;5086593;28;20380;-55
2023/09/16 04:28:06;;;;;;;22.90;13.50;;;19.50;99.90;;;;;;5090872;28;20020;-57
2023/09/16 04:30:37;;;;;;;19.17;14.05;;;19.70;99.90;;;;;;5086433;28;20020;-55
2023/09/16 04:33:03;;;;;;;17.05;12.77;;;19.80;99.90;;;;;;5084371;28;20029;-57
2023/09/16 04:35:29;;;;;;;14.85;12.90;;;19.70;99.90;;;;;;5091358;28;20413;-55
2023/09/16 04:37:55;;;;;;;19.77;13.32;;;19.50;99.90;;;;;;5091542;28;20031;-56
2023/09/16 04:40:21;;;;;;;14.63;12.82;;;19.40;99.90;;;;;;5091613;28;20028;-56
2023/09/16 04:42:47;;;;;;;16.58;12.60;;;19.60;99.90;;;;;;5091554;28;20036;-56
2023/09/16 04:45:15;;;;;;;17.20;12.57;;;19.80;99.90;;;;;;5088349;28;20050;-57
2023/09/16 04:47:41;;;;;;;14.90;12.43;;;19.80;99.90;;;;;;5085682;28;20681;-56
2023/09/16 04:50:07;;;;;;;15.70;12.75;;;19.70;99.90;;;;;;5092484;28;20110;-55
2023/09/16 04:52:33;;;;;;;14.48;12.95;;;19.60;99.90;;;;;;5090842;28;20483;-56
2023/09/16 04:54:59;;;;;;;15.98;11.77;;;19.90;99.90;;;;;;5091342;28;20027;-56
2023/09/16 04:57:25;;;;;;;16.40;12.15;;;19.70;99.90;;;;;;5022922;28;20060;-55
2023/09/16 04:59:51;;;;;;;12.65;10.50;;;19.70;99.90;;;;;;5091727;28;20594;-57
2023/09/16 05:02:17;;;;;;;16.15;11.40;;;19.90;99.90;;;;;;5037659;28;20052;-56
2023/09/16 05:04:42;;;;;;;13.38;10.75;;;20.10;99.90;;;;;;5059825;28;20032;-57
2023/09/16 05:07:08;;;;;;;13.93;11.32;;;20.30;99.90;;;;;;5091573;28;20016;-55
2023/09/16 05:09:35;;;;;;;12.63;10.23;;;20.00;99.90;;;;;;5040993;28;20043;-56
2023/09/16 05:12:02;;;;;;;12.32;11.02;;;19.70;99.90;;;;;;5090618;28;20054;-57
2023/09/16 05:14:27;;;;;;;12.88;10.93;;;19.60;99.90;;;;;;5090929;28;20043;-58
2023/09/16 05:16:53;;;;;;;14.20;11.20;;;19.60;99.90;;;;;;5091419;28;20022;-57
2023/09/16 05:19:19;;;;;;;15.65;10.98;;;;;;;;;;5090775;28;20028;-56
2023/09/16 05:21:45;;;;;;;12.43;10.65;;;19.50;99.90;;;;;;5090712;28;20056;-57
2023/09/16 05:24:11;;;;;;;17.08;10.00;;;19.40;99.90;;;;;;5090908;28;20399;-56
2023/09/16 05:26:37;;;;;;;13.27;10.40;;;19.50;99.90;;;;;;5070473;28;20051;-55
2023/09/16 05:29:03;;;;;;;13.95;10.60;;;19.60;99.90;;;;;;5090975;28;20475;-55
2023/09/16 05:31:29;;;;;;;13.55;10.27;;;19.90;99.90;;;;;;5091698;28;20061;-56
2023/09/16 05:33:55;;;;;;;13.88;11.68;;;19.90;99.90;;;;;;5055781;28;20036;-57
2023/09/16 05:36:21;;;;;;;13.55;10.88;;;20.00;99.90;;;;;;5025685;28;20422;-57
2023/09/16 05:38:46;;;;;;;15.35;11.02;;;20.40;99.90;;;;;;5091582;28;20024;-57
2023/09/16 05:41:12;;;;;;;16.88;11.27;;;;;;;;;;5065602;28;20040;-55
2023/09/16 05:43:38;;;;;;;15.98;10.93;;;20.70;99.90;;;;;;5090586;28;20032;-57
2023/09/16 05:46:06;;;;;;;15.60;11.13;;;20.70;99.90;;;;;;5092139;28;20407;-56
2023/09/16 05:48:31;;;;;;;12.50;10.88;;;20.80;99.90;;;;;;5091451;28;20072;-55
2023/09/16 05:50:58;;;;;;;13.52;12.07;;;20.80;99.90;;;;;;5092299;28;20031;-57
2023/09/16 05:53:25;;;;;;;19.25;12.15;;;21.00;99.90;;;;;;5088890;28;20055;-55
2023/09/16 05:55:53;;;;;;;14.77;12.43;;;;;;;;;;5091490;28;20106;-57
2023/09/16 05:58:19;;;;;;;13.07;11.75;;;21.30;99.90;;;;;;5094802;28;20036;-56
2023/09/16 06:00:53;;;;;;;13.90;12.40;;;;;;;;;;5094121;28;20049;-56
2023/09/16 06:03:20;;;;;;;16.05;12.52;;;;;;;;;;5094150;28;20040;-55
2023/09/16 06:05:46;;;;;;;15.00;11.63;;;;;;;;;;5092871;28;20020;-57
2023/09/16 06:08:12;;;;;;;16.20;11.27;;;21.90;99.90;;;;;;5093010;28;20028;-55
2023/09/16 06:10:37;;;;;;;14.93;12.10;;;22.10;99.90;;;;;;5092286;28;20030;-56
2023/09/16 06:13:03;;;;;;;14.80;11.55;;;22.20;99.90;;;;;;5094483;28;20043;-55
2023/09/16 06:15:30;;;;;;;15.38;10.63;;;;;;;;;;5057814;28;20032;-57
2023/09/16 06:17:56;;;;;;;13.75;10.52;;;22.40;99.90;;;;;;5094066;28;20039;-55
2023/09/16 06:20:22;;;;;;;19.15;12.32;;;22.50;99.90;;;;;;5041852;28;20024;-55
2023/09/16 06:22:47;;;;;;;11.85;10.57;;;22.80;99.90;;;;;;5093613;28;20134;-56
2023/09/16 06:25:14;;;;;;;15.32;10.70;;;22.90;99.90;;;;;;5024310;28;20078;-57
2023/09/16 06:27:40;;;;;;;13.60;9.73;;;;;;;;;;5093816;28;20475;-56
2023/09/16 06:30:06;;;;;;;15.43;11.00;;;22.90;99.90;;;;;;5041653;28;20034;-55
2023/09/16 06:32:32;;;;;;;10.13;8.68;;;23.00;99.90;;;;;;5024670;28;21847;-57
2023/09/16 06:34:58;;;;;;;13.98;9.10;;;22.90;99.90;;;;;;5093832;28;20100;-58
2023/09/16 06:37:23;;;;;;;15.20;9.77;;;23.00;99.90;;;;;;5093547;28;20024;-56
2023/09/16 06:39:49;;;;;;;10.35;8.75;;;22.90;99.90;;;;;;5093108;28;20020;-56
2023/09/16 06:42:15;;;;;;;13.50;9.02;;;23.00;99.90;;;;;;5093151;28;20043;-58
2023/09/16 06:44:40;;;;;;;12.90;9.73;;;23.00;99.90;;;;;;5090982;28;20024;-56
2023/09/16 06:47:06;;;;;;;13.48;9.00;;;23.20;99.90;;;;;;5092901;28;20023;-55
2023/09/16 06:49:32;;;;;;;11.27;9.68;;;22.80;99.90;;;;;;5093782;28;20447;-54
2023/09/16 06:51:58;;;;;;;9.55;8.65;;;23.10;99.90;;;;;;5093090;28;20076;-56
2023/09/16 06:54:23;;;;;;;10.65;9.15;;;23.20;99.90;;;;;;5056043;28;20039;-54
2023/09/16 06:56:49;;;;;;;12.32;9.75;;;;;;;;;;5091789;28;20024;-54
2023/09/16 06:59:15;;;;;;;13.45;10.50;;;;;;;;;;5092719;28;20031;-54
2023/09/16 07:01:41;;;;;;;16.35;10.05;;;24.10;99.90;;;;;;5043912;28;20049;-54
2023/09/16 07:04:07;;;;;;;14.05;9.55;;;;;;;;;;5073835;28;20392;-55
2023/09/16 07:06:33;;;;;;;12.13;9.50;;;;;;;;;;5040742;28;20132;-54
2023/09/16 07:09:00;;;;;;;10.15;9.15;;;;;;;;;;5091290;28;20104;-55
2023/09/16 07:11:26;;;;;;;17.05;9.55;;;;;;;;;;5092350;28;20020;-55
2023/09/16 07:13:52;;;;;;;11.88;8.82;;;25.40;99.90;;;;;;5085802;28;20451;-54
2023/09/16 07:16:21;;;;;;;12.60;8.80;;;25.00;99.90;;;;;;5093258;28;20032;-55
2023/09/16 07:18:47;;;;;;;10.85;7.97;;;25.60;99.90;;;;;;5092888;28;20047;-55
2023/09/16 07:21:13;;;;;;;13.43;8.23;;;25.90;99.90;;;;;;5073648;28;20067;-53
2023/09/16 07:23:38;;;;;;;7.93;7.05;;;25.60;99.90;;;;;;5093317;28;20128;-52
2023/09/16 07:26:05;;;;;;;13.30;9.00;;;;;;;;;;5092954;28;20020;-52
2023/09/16 07:28:31;;;;;;;11.10;6.75;;;;;;;;;;5039788;28;20032;-52
2023/09/16 07:30:57;;;;;;;9.07;7.60;;;;;;;;;;5088388;28;20036;-52
2023/09/16 07:33:23;;;;;;;9.25;6.15;;;27.20;99.90;;;;;;5086270;28;20028;-52
2023/09/16 07:35:51;;;;;;;6.85;6.15;;;;;;;;;;5074217;28;20043;-52
2023/09/16 07:38:17;;;;;;;8.15;6.40;;;27.90;99.90;;;;;;5058264;28;20040;-52
2023/09/16 07:40:42;;;;;;;6.93;5.80;;;27.90;99.90;;;;;;5093134;28;20449;-53
2023/09/16 07:43:08;;;;;;;6.68;5.03;;;27.50;99.90;;;;;;5034863;28;20052;-54
2023/09/16 07:45:34;;;;;;;6.43;5.78;;;27.30;99.90;;;;;;5052726;28;20094;-54
2023/09/16 07:48:00;;;;;;;5.82;5.22;;;27.20;99.90;;;;;;5051108;28;20033;-54
2023/09/16 07:50:26;;;;;;;9.75;5.18;;;27.30;99.90;;;;;;5087793;28;20059;-53
2023/09/16 07:53:12;;;;;;;6.07;5.32;;;27.60;99.90;;;;;;5059891;28;20167;-56
2023/09/16 07:55:39;;;;;;;6.63;5.07;;;;;;;;;;5069095;28;20127;-54
2023/09/16 07:58:05;;;;;;;6.03;5.43;;;27.70;99.90;;;;;;5063058;28;20090;-54
2023/09/16 08:00:30;;;;;;;5.97;4.78;;;27.10;99.90;;;;;;5033339;28;20032;-54
2023/09/16 08:02:56;;;;;;;6.53;5.30;;;26.30;99.90;;;;;;5060187;28;20045;-54
2023/09/16 08:05:22;;;;;;;5.97;4.85;;;26.30;99.90;;;;;;5059369;28;20047;-54
2023/09/16 08:07:48;;;;;;;10.77;4.90;;;26.20;99.90;;;;;;5069959;28;20275;-54
2023/09/16 08:10:13;;;;;;;6.35;5.03;;;26.30;99.90;;;;;;5069937;28;20112;-54
2023/09/16 08:12:39;;;;;;;9.18;5.60;;;26.70;99.90;;;;;;5069941;28;20029;-53
2023/09/16 08:15:06;;;;;;;5.88;5.03;;;26.80;99.90;;;;;;5068773;28;20058;-54
2023/09/16 08:17:37;;;;;;;6.22;4.95;;;26.50;99.90;;;;;;5069727;28;20028;-54
2023/09/16 08:20:05;;;;;;;7.45;5.95;;;26.40;99.90;;;;;;5069855;28;20888;-54
2023/09/16 08:22:31;;;;;;;6.85;5.10;;;26.50;99.90;;;;;;4954302;28;20431;-53
2023/09/16 08:24:57;;;;;;;11.63;6.45;;;26.90;99.90;;;;;;5088064;28;20032;-54
2023/09/16 08:27:22;;;;;;;8.85;5.93;;;27.10;99.90;;;;;;5089794;28;20055;-53
2023/09/16 08:29:52;;;;;;;7.90;5.10;;;26.70;99.90;;;;;;5091949;28;20089;-54
2023/09/16 08:32:19;;;;;;;6.40;5.80;;;26.80;99.90;;;;;;5091749;28;20086;-54
2023/09/16 08:34:45;;;;;;;13.70;6.68;;;26.60;99.90;;;;;;5091496;28;20035;-54
2023/09/16 08:37:13;;;;;;;7.28;5.80;;;26.80;99.90;;;;;;5055907;28;20036;-53
2023/09/16 08:39:39;;;;;;;6.45;5.30;;;26.90;99.90;;;;;;5091954;28;20490;-53
2023/09/16 08:42:29;;;;;;;10.48;6.40;;;27.00;99.90;;;;;;5039064;28;20059;-54
2023/09/16 08:44:57;;;;;;;8.05;6.28;;;26.70;99.90;;;;;;5054123;28;20032;-54
2023/09/16 08:47:48;;;;;;;9.77;7.53;;;26.30;99.90;;;;;;5091830;28;20111;-54
2023/09/16 08:50:17;;;;;;;11.30;7.20;;;25.80;99.90;;;;;;5029315;28;20033;-54
2023/09/16 08:52:53;;;;;;;8.45;7.07;;;25.80;99.90;;;;;;5029210;28;20123;-55
2023/09/16 08:55:20;;;;;;;8.35;6.72;;;25.40;99.90;;;;;;5028597;28;20029;-53
2023/09/16 08:57:53;;;;;;;7.97;6.97;;;25.30;99.90;;;;;;5012755;28;20370;-54
2023/09/16 09:00:19;;;;;;;7.22;6.55;;;25.30;99.90;;;;;;5029333;28;20044;-54
2023/09/16 09:02:45;;;;;;;8.05;7.07;;;25.30;99.90;;;;;;5029257;28;20029;-54
2023/09/16 09:05:12;;;;;;;7.78;6.40;;;;;;;;;;4996463;28;20038;-54
2023/09/16 09:07:40;;;;;;;9.32;7.32;;;24.70;99.90;;;;;;5029064;28;20029;-53
2023/09/16 09:10:06;;;;;;;8.60;6.55;;;24.60;99.90;;;;;;4997505;28;20033;-54
2023/09/16 09:12:37;;;;;;;8.93;6.40;;;24.80;99.90;;;;;;5000088;28;20064;-53
2023/09/16 09:15:07;;;;;;;6.97;6.35;;;24.80;99.90;;;;;;5033383;28;20061;-54
2023/09/16 09:17:42;;;;;;;8.65;6.13;;;25.00;99.90;;;;;;5000909;28;20145;-53
2023/09/16 09:20:13;;;;;;;7.32;5.93;;;25.00;99.90;;;;;;5036301;28;20442;-53
2023/09/16 09:22:40;;;;;;;6.20;5.23;;;25.30;99.90;;;;;;5095217;28;20044;-53
2023/09/16 09:25:07;;;;;;;6.18;5.05;;;25.30;99.90;;;;;;5095154;28;20256;-54
2023/09/16 09:27:33;;;;;;;8.13;5.35;;;25.20;99.90;;;;;;5059620;28;20040;-54
2023/09/16 09:29:59;;;;;;;6.82;5.63;;;25.10;99.90;;;;;;5095641;28;20024;-54
2023/09/16 09:32:32;;;;;;;6.93;5.35;;;25.30;99.90;;;;;;5059301;28;20467;-54
2023/09/16 09:35:07;;;;;;;7.32;5.32;;;25.70;99.90;;;;;;5095441;28;20020;-54
2023/09/16 09:37:33;;;;;;;7.00;5.25;;;25.80;99.90;;;;;;5059106;28;20040;-55
2023/09/16 09:40:11;;;;;;;6.75;5.35;;;26.10;99.90;;;;;;5075351;28;20043;-55
2023/09/16 09:42:42;;;;;;;7.82;5.90;;;26.20;99.90;;;;;;5059993;28;20040;-55
2023/09/16 09:45:09;;;;;;;5.40;4.90;;;;;;;;;;5096801;28;20526;-54
2023/09/16 09:47:39;;;;;;;5.80;5.20;;;26.50;99.90;;;;;;5096794;28;20252;-54
2023/09/16 09:50:07;;;;;;;5.85;4.72;;;;;;;;;;5097036;28;20024;-54
2023/09/16 09:52:34;;;;;;;6.22;5.05;;;27.10;99.90;;;;;;5096546;28;20035;-54
2023/09/16 09:55:01;;;;;;;7.55;4.75;;;;;;;;;;5096626;28;20024;-54
2023/09/16 09:57:27;;;;;;;6.65;4.60;;;27.60;99.90;;;;;;5096640;28;20020;-54
2023/09/16 09:59:55;;;;;;;5.63;5.10;;;;;;;;;;5096545;28;20024;-54
2023/09/16 10:02:26;;;;;;;5.80;4.97;;;27.70;99.90;;;;;;5096643;28;20102;-55
2023/09/16 10:05:01;;;;;;;5.95;5.35;;;28.20;99.90;;;;;;5096599;28;20024;-54
2023/09/16 10:07:28;;;;;;;6.38;5.78;;;28.20;99.90;;;;;;5096431;28;20028;-55
2023/09/16 10:09:54;;;;;;;6.63;4.90;;;;;;;;;;5096222;28;20471;-54
2023/09/16 10:12:21;;;;;;;7.35;5.72;;;;;;;;;;5096267;28;20471;-54
2023/09/16 10:14:48;;;;;;;8.50;6.78;;;28.30;99.90;;;;;;5096257;28;20043;-54
2023/09/16 10:17:14;;;;;;;11.43;6.18;;;28.60;99.90;;;;;;5094055;28;20040;-55
2023/09/16 10:19:41;;;;;;;6.30;5.63;;;;;;;;;;5089866;28;20032;-55
2023/09/16 10:22:07;;;;;;;5.78;4.95;;;;;;;;;;5094808;28;20105;-54
2023/09/16 10:24:35;;;;;;;6.28;5.43;;;28.60;99.90;;;;;;5096433;28;20024;-54
2023/09/16 10:27:08;;;;;;;6.13;4.88;;;28.50;99.90;;;;;;5077509;28;20032;-54
2023/09/16 10:29:35;;;;;;;6.95;4.82;;;;;;;;;;5096075;28;20031;-55
2023/09/16 10:32:01;;;;;;;8.82;5.68;;;29.00;99.00;;;;;;5096006;28;20032;-55
2023/09/16 10:34:27;;;;;;;6.60;5.93;;;28.60;99.90;;;;;;5096517;28;20062;-54
2023/09/16 10:36:53;;;;;;;8.38;5.88;;;28.20;99.90;;;;;;5095972;28;20349;-55
2023/09/16 10:39:20;;;;;;;7.22;5.80;;;28.00;99.60;;;;;;5095854;28;20035;-54
2023/09/16 10:41:47;;;;;;;8.25;6.68;;;28.10;99.90;;;;;;5096022;28;20028;-55
2023/09/16 10:44:15;;;;;;;7.97;6.50;;;28.40;99.90;;;;;;5096041;28;20020;-55
2023/09/16 10:46:43;;;;;;;11.10;6.35;;;28.50;99.90;;;;;;5077079;28;20040;-55
2023/09/16 10:49:09;;;;;;;10.70;5.90;;;27.90;99.90;;;;;;5096144;28;20106;-54
2023/09/16 10:51:42;;;;;;;6.85;5.80;;;28.10;99.90;;;;;;5095350;28;20428;-55
2023/09/16 10:54:43;;;;;;;8.13;6.20;;;27.40;99.90;;;;;;5095752;28;20043;-55
2023/09/16 10:57:20;;;;;;;7.70;5.87;;;27.80;99.90;;;;;;5088460;28;20040;-54
2023/09/16 10:59:51;;;;;;;6.60;5.90;;;28.00;99.80;;;;;;5053077;28;20121;-55
2023/09/16 11:02:49;;;;;;;6.90;6.30;;;28.20;99.50;;;;;;5053039;28;20507;-55
2023/09/16 11:05:15;;;;;;;6.70;5.93;;;;;;;;;;5019693;28;20438;-55
2023/09/16 11:07:42;;;;;;;9.38;6.18;;;;;;;;;;5052923;28;20123;-56
2023/09/16 11:10:10;;;;;;;10.00;6.30;;;29.40;99.90;;;;;;5052901;28;20550;-55
2023/09/16 11:12:36;;;;;;;6.50;5.53;;;;;;;;;;5039431;28;20032;-55
2023/09/16 11:15:07;;;;;;;7.95;5.82;;;28.80;99.90;;;;;;5054832;28;20045;-55
2023/09/16 11:17:33;;;;;;;7.60;5.83;;;29.60;99.90;;;;;;5052677;28;20036;-55
2023/09/16 11:20:17;;;;;;;7.43;6.13;;;;;;;;;;5052566;28;20041;-55
2023/09/16 11:22:47;;;;;;;6.72;5.50;;;;;;;;;;5052321;28;20053;-55
2023/09/16 11:25:14;;;;;;;9.90;5.47;;;31.20;99.90;;;;;;5036587;28;20424;-55
2023/09/16 11:27:40;;;;;;;8.48;5.75;;;31.50;97.20;;;;;;5035926;28;20037;-55
2023/09/16 11:30:10;;;;;;;7.68;5.82;;;;;;;;;;5062191;28;20040;-55
2023/09/16 11:32:36;;;;;;;7.57;5.35;;;;;;;;;;5094591;28;20536;-55
2023/09/16 11:35:03;;;;;;;6.45;5.43;;;32.50;98.30;;;;;;5094672;28;20499;-54
2023/09/16 11:37:31;;;;;;;5.82;5.13;;;;;;;;;;5094791;28;20107;-54
2023/09/16 11:40:00;;;;;;;8.75;5.13;;;;;;;;;;5094911;28;20028;-56
2023/09/16 11:42:27;;;;;;;6.43;5.45;;;;;;;;;;5094849;28;20040;-54
2023/09/16 11:44:55;;;;;;;5.20;4.70;;;;;;;;;;5094393;28;20032;-54
2023/09/16 11:47:21;;;;;;;7.07;4.57;;;;;;;;;;5094517;28;20050;-54
2023/09/16 11:49:49;;;;;;;7.65;4.97;;;;;;;;;;5094475;28;20031;-54
2023/09/16 11:52:15;;;;;;;7.55;5.00;;;;;;;;;;5094544;28;20107;-54
2023/09/16 11:54:41;;;;;;;6.88;4.88;;;33.20;99.90;;;;;;5094429;28;20041;-54
2023/09/16 11:57:08;;;;;;;4.55;4.15;;;;;;;;;;5094237;28;20472;-54
2023/09/16 11:59:34;;;;;;;6.43;4.20;;;33.30;94.70;;;;;;5094234;28;20024;-54
2023/09/16 12:02:00;;;;;;;6.13;4.85;;;33.80;94.50;;;;;;5094590;28;20032;-54
2023/09/16 12:04:27;;;;;;;6.55;4.90;;;33.60;93.80;;;;;;5094267;28;20472;-54
2023/09/16 12:06:54;;;;;;;5.68;5.03;;;33.60;94.00;;;;;;5093988;28;20032;-54
2023/09/16 12:09:22;;;;;;;6.57;5.28;;;34.00;94.10;;;;;;5094591;28;20028;-54
2023/09/16 12:11:51;;;;;;;8.52;5.07;;;34.20;94.10;;;;;;5093930;28;20383;-54
2023/09/16 12:14:18;;;;;;;8.45;5.32;;;;;;;;;;5093943;28;20038;-55
2023/09/16 12:16:44;;;;;;;6.78;5.35;;;;;;;;;;5093984;28;20039;-56
2023/09/16 12:19:10;;;;;;;6.60;5.93;;;33.10;99.90;;;;;;5094100;28;20024;-54
2023/09/16 12:21:35;;;;;;;7.50;6.68;;;33.00;93.40;;;;;;5052357;28;20450;-54
2023/09/16 12:24:01;;;;;;;6.93;6.03;;;32.50;93.70;;;;;;5073521;28;20037;-54
2023/09/16 12:26:27;;;;;;;7.32;6.63;;;32.20;94.10;;;;;;5073695;28;20029;-55
2023/09/16 12:28:53;;;;;;;7.00;5.80;;;32.30;94.30;;;;;;5073776;28;20035;-55
2023/09/16 12:31:23;;;;;;;9.20;6.43;;;32.60;93.90;;;;;;4989222;28;20522;-54
2023/09/16 12:33:53;;;;;;;6.20;5.53;;;32.70;94.10;;;;;;5073575;28;20025;-54
2023/09/16 12:36:28;;;;;;;6.63;5.85;;;33.20;94.00;;;;;;5073407;28;20555;-54
2023/09/16 12:38:56;;;;;;;7.07;6.38;;;33.40;93.60;;;;;;5073602;28;20048;-54
2023/09/16 12:41:25;;;;;;;6.90;6.13;;;33.60;93.70;;;;;;5073325;28;20072;-54
2023/09/16 12:43:51;;;;;;;9.45;6.00;;;32.70;93.50;;;;;;5073335;28;20028;-54
2023/09/16 12:46:21;;;;;;;6.05;5.45;;;32.90;94.10;;;;;;5073443;28;20042;-55
2023/09/16 12:48:49;;;;;;;6.40;5.75;;;33.30;93.90;;;;;;5038048;28;20043;-53
2023/09/16 12:51:20;;;;;;;6.50;5.55;;;32.80;93.60;;;;;;5073180;28;20538;-54
2023/09/16 12:53:47;;;;;;;8.02;6.30;;;33.20;93.60;;;;;;5073463;28;20096;-53
2023/09/16 12:56:17;;;;;;;6.60;6.00;;;33.00;93.90;;;;;;5073011;28;20044;-54
2023/09/16 12:58:47;;;;;;;7.65;6.28;;;32.80;93.70;;;;;;5072756;28;20032;-53
2023/09/16 13:01:17;;;;;;;7.10;6.22;;;33.00;93.60;;;;;;5072935;28;20024;-54
2023/09/16 13:03:44;;;;;;;7.03;6.38;;;32.90;93.50;;;;;;5038126;28;20043;-55
2023/09/16 13:06:10;;;;;;;6.55;5.95;;;32.70;93.50;;;;;;5073393;28;20488;-55
2023/09/16 13:08:37;;;;;;;7.10;6.50;;;32.00;93.50;;;;;;5073154;28;20028;-54
2023/09/16 13:11:03;;;;;;;8.77;6.57;;;32.20;93.70;;;;;;5021112;28;20033;-54